Time;durP1;ratioP1;P1;durP2;ratioP2;P2;SDS_P1;SDS_P2;PMS_P1;PMS_P2;Temp;Humidity;BMP_temperature;BMP_pressure;BME280_temperature;BME280_humidity;BME280_pressure;Samples;Min_cycle;Max_cycle;Signal;HPM_P1;HPM_P2
2022/01/06 00:00:20;;;;;;;5.40;3.23;;;;;;;2.11;100.00;151909.13;4992693;28;20449;-76
2022/01/06 00:02:55;;;;;;;5.47;2.90;;;;;;;2.10;100.00;151906.53;4977554;28;20441;-75
2022/01/06 00:05:31;;;;;;;6.23;3.30;;;;;;;2.10;100.00;151906.53;5008792;28;20755;-75
2022/01/06 00:08:08;;;;;;;5.57;3.43;;;;;;;2.11;100.00;151909.13;5025654;28;20884;-75
2022/01/06 00:10:46;;;;;;;3.60;2.77;;;;;;;2.11;100.00;151909.13;5008615;28;20474;-75
2022/01/06 00:13:27;;;;;;;5.73;3.27;;;;;;;2.09;100.00;151903.94;4992438;28;20434;-76
2022/01/06 00:16:14;;;;;;;5.37;3.13;;;;;;;2.07;100.00;151898.81;4993977;28;20690;-75
2022/01/06 00:24:37;;;;;;;5.57;3.57;;;;;;;2.13;100.00;151914.25;4996354;28;20445;-75
2022/01/06 00:27:12;;;;;;;7.50;3.80;;;;;;;2.11;100.00;151909.13;5014204;28;20549;-75
2022/01/06 00:29:48;;;;;;;4.33;3.23;;;;;;;2.11;100.00;151907.84;4976949;28;20472;-75
2022/01/06 00:32:23;;;;;;;8.20;3.30;;;;;;;2.13;100.00;151914.25;5008453;28;20441;-75
2022/01/06 00:34:59;;;;;;;4.73;3.37;;;;;;;2.11;100.00;151909.13;5008445;28;20451;-76
2022/01/06 00:37:34;;;;;;;4.43;3.20;;;;;;;2.11;100.00;151909.13;5008177;28;20469;-75
2022/01/06 00:40:12;;;;;;;7.10;4.03;;;;;;;2.12;100.00;151910.44;5008352;28;20516;-75
2022/01/06 00:42:48;;;;;;;4.53;3.43;;;;;;;2.11;100.00;151907.84;4976710;28;20441;-75
2022/01/06 00:45:24;;;;;;;4.33;2.80;;;;;;;2.10;100.00;151906.53;5008290;28;20445;-76
2022/01/06 00:47:59;;;;;;;4.33;3.20;;;;;;;2.09;100.00;151903.94;5009145;28;20477;-75
2022/01/06 00:50:35;;;;;;;6.50;3.83;;;;;;;2.12;100.00;151910.44;4976485;28;20495;-76
2022/01/06 00:53:11;;;;;;;5.97;3.50;;;;;;;2.13;100.00;151914.25;5008060;28;20519;-75
2022/01/06 00:55:47;;;;;;;4.57;3.47;;;;;;;2.11;100.00;151907.84;4975720;28;20826;-75
2022/01/06 00:58:23;;;;;;;4.87;3.40;;;;;;;2.15;100.00;151919.41;4991724;28;20533;-76
2022/01/06 01:00:59;;;;;;;5.63;3.77;;;;;;;2.14;100.00;151916.84;4993246;28;20433;-75
2022/01/06 01:03:35;;;;;;;4.17;3.03;;;;;;;2.12;100.00;151911.69;5024385;28;20444;-76
2022/01/06 01:06:11;;;;;;;4.30;3.70;;;;;;;2.12;100.00;151911.69;4991588;28;20848;-75
2022/01/06 01:08:46;;;;;;;5.93;4.50;;;;;;;2.20;100.00;151930.94;4991374;28;20440;-75
2022/01/06 01:11:23;;;;;;;5.90;3.10;;;;;;;2.11;100.00;151907.84;5024429;28;20437;-75
2022/01/06 01:14:16;;;;;;;3.30;2.93;;;;;;;2.11;100.00;151909.13;5007964;28;20526;-75
2022/01/06 01:16:56;;;;;;;5.63;3.37;;;;;;;2.14;100.00;151915.56;4976283;28;20993;-76
2022/01/06 01:19:32;;;;;;;6.27;3.53;;;;;;;2.13;100.00;151912.97;4976463;28;20762;-75
2022/01/06 01:22:08;;;;;;;10.67;3.60;;;;;;;2.15;100.00;151919.41;4976313;28;20430;-75
2022/01/06 01:24:43;;;;;;;6.03;3.87;;;;;;;2.14;100.00;151916.84;5007541;28;20449;-75
2022/01/06 01:27:22;;;;;;;5.00;3.90;;;;;;;2.11;100.00;151909.13;4991364;28;20461;-75
2022/01/06 01:30:02;;;;;;;5.83;3.40;;;;;;;2.13;100.00;151914.25;4991423;28;20939;-76
2022/01/06 01:32:39;;;;;;;7.43;3.97;;;;;;;2.12;100.00;151911.69;4991255;28;20912;-76
2022/01/06 01:35:15;;;;;;;5.90;3.60;;;;;;;2.16;100.00;151921.97;4991156;28;20483;-75
2022/01/06 01:37:50;;;;;;;5.33;3.23;;;;;;;2.20;100.00;151932.25;4991252;28;20466;-75
2022/01/06 01:40:27;;;;;;;9.20;3.67;;;;;;;2.17;100.00;151923.28;4991424;28;20556;-76
2022/01/06 01:43:04;;;;;;;6.73;3.53;;;;;;;2.17;100.00;151923.28;5007605;28;20454;-75
2022/01/06 01:45:46;;;;;;;6.43;3.90;;;;;;;2.15;100.00;151919.41;5008952;28;20485;-75
2022/01/06 01:48:27;;;;;;;9.87;3.63;;;;;;;2.16;100.00;151921.97;5003767;28;20474;-75
2022/01/06 01:51:03;;;;;;;5.70;3.40;;;;;;;2.15;100.00;151918.09;4977495;28;20880;-76
2022/01/06 01:53:39;;;;;;;5.57;3.57;;;;;;;2.15;100.00;151919.41;4990901;28;20445;-76
2022/01/06 01:56:15;;;;;;;5.50;3.27;;;;;;;2.16;100.00;151921.97;4990996;28;20473;-76
2022/01/06 01:58:51;;;;;;;4.57;3.30;;;;;;;2.13;100.00;151912.97;4991037;28;20804;-76
2022/01/06 02:01:27;;;;;;;5.10;3.70;;;;;;;2.14;100.00;151916.84;4976297;28;20556;-76
2022/01/06 02:04:03;;;;;;;3.73;2.93;;;;;;;2.12;100.00;151911.69;5007495;28;20461;-75
2022/01/06 02:06:38;;;;;;;3.80;2.83;;;;;;;2.13;100.00;151914.25;5008506;28;20426;-75
2022/01/06 02:09:14;;;;;;;4.90;3.03;;;;;;;2.14;100.00;151915.56;4994449;28;20459;-75
2022/01/06 02:11:50;;;;;;;5.40;3.23;;;;;;;2.14;100.00;151916.84;5010805;28;20452;-75
2022/01/06 02:14:28;;;;;;;7.43;3.27;;;;;;;2.14;100.00;151915.56;4994555;28;20454;-76
2022/01/06 02:17:03;;;;;;;4.37;3.47;;;;;;;2.15;100.00;151919.41;5027265;28;20497;-75
2022/01/06 02:19:39;;;;;;;4.90;3.30;;;;;;;2.12;100.00;151910.44;5000683;28;20445;-76
2022/01/06 02:22:17;;;;;;;4.90;3.40;;;;;;;2.10;100.00;151905.25;5030510;28;20804;-76
2022/01/06 02:24:53;;;;;;;9.03;3.73;;;;;;;2.11;100.00;151909.13;5027729;28;20450;-76
2022/01/06 02:27:28;;;;;;;5.17;3.37;;;;;;;2.11;100.00;151909.13;5027160;28;20902;-76
2022/01/06 02:30:05;;;;;;;5.30;3.47;;;;;;;2.09;100.00;151902.72;5027229;28;20451;-76
2022/01/06 02:32:41;;;;;;;5.97;3.90;;;;;;;2.12;100.00;151910.44;4994103;28;20480;-76
2022/01/06 02:35:18;;;;;;;7.00;3.60;;;;;;;2.11;100.00;151909.13;4994362;28;20804;-76
2022/01/06 02:37:55;;;;;;;6.97;3.33;;;;;;;2.11;100.00;151909.13;4993976;28;20576;-75
2022/01/06 02:40:31;;;;;;;5.60;3.47;;;;;;;2.09;100.00;151903.94;4995586;28;20471;-76
2022/01/06 02:43:07;;;;;;;4.40;3.40;;;;;;;2.11;100.00;151909.13;5003089;28;20433;-76
2022/01/06 02:45:44;;;;;;;6.87;3.60;;;;;;;2.10;100.00;151906.53;5008885;28;20885;-75
2022/01/06 02:48:19;;;;;;;4.50;3.53;;;;;;;2.11;100.00;151909.13;4991576;28;20812;-75
2022/01/06 02:50:55;;;;;;;5.30;3.40;;;;;;;2.11;100.00;151907.84;4990917;28;20492;-76
2022/01/06 02:53:32;;;;;;;6.17;3.20;;;;;;;2.08;100.00;151901.41;4990155;28;20938;-76
2022/01/06 02:56:07;;;;;;;8.07;3.07;;;;;;;2.10;100.00;151906.53;4990464;28;20844;-75
2022/01/06 02:58:43;;;;;;;5.00;3.40;;;;;;;2.08;100.00;151901.41;4991552;28;20459;-76
2022/01/06 03:01:19;;;;;;;5.10;3.50;;;;;;;2.04;100.00;151889.84;4978799;28;20448;-75
2022/01/06 03:03:54;;;;;;;8.10;3.13;;;;;;;2.09;100.00;151902.72;4993502;28;20430;-76
2022/01/06 03:06:30;;;;;;;5.50;3.37;;;;;;;2.10;100.00;151906.53;4993564;28;20524;-75
2022/01/06 03:09:07;;;;;;;5.90;3.50;;;;;;;2.07;100.00;151897.53;4993492;28;20451;-76
2022/01/06 03:11:44;;;;;;;6.43;3.40;;;;;;;2.12;100.00;151910.44;5009796;28;20696;-75
2022/01/06 03:14:20;;;;;;;4.00;3.20;;;;;;;2.09;100.00;151903.94;4978456;28;20451;-76
2022/01/06 03:16:55;;;;;;;5.77;3.97;;;;;;;2.06;100.00;151896.28;5009566;28;20548;-76
2022/01/06 03:19:31;;;;;;;6.60;3.53;;;;;;;2.06;100.00;151895.00;5030550;28;20467;-76
2022/01/06 03:22:07;;;;;;;4.00;2.70;;;;;;;2.07;100.00;151898.81;5029238;28;20446;-76
2022/01/06 03:24:44;;;;;;;3.93;3.30;;;;;;;2.09;100.00;151903.94;5014314;28;20730;-76
2022/01/06 03:27:19;;;;;;;6.53;3.43;;;;;;;2.06;100.00;151896.28;5012826;28;20867;-75
2022/01/06 03:29:55;;;;;;;3.23;2.50;;;;;;;2.08;100.00;151901.41;5029140;28;20473;-75
2022/01/06 03:32:31;;;;;;;6.40;3.27;;;;;;;2.09;100.00;151903.94;5029083;28;20430;-76
2022/01/06 03:35:07;;;;;;;3.77;3.10;;;;;;;2.08;100.00;151901.41;5009587;28;20489;-75
2022/01/06 03:37:42;;;;;;;4.30;2.83;;;;;;;2.09;100.00;151903.94;5009175;28;20494;-76
2022/01/06 03:40:20;;;;;;;4.03;3.30;;;;;;;2.11;100.00;151907.84;5009489;28;20443;-76
2022/01/06 03:42:55;;;;;;;5.77;3.10;;;;;;;2.16;100.00;151920.69;4994007;28;20452;-76
2022/01/06 03:45:32;;;;;;;4.90;2.87;;;;;;;2.11;100.00;151909.13;5009293;28;20454;-76
2022/01/06 03:48:08;;;;;;;3.40;2.80;;;;;;;2.11;100.00;151909.13;5008894;28;20896;-76
2022/01/06 03:50:43;;;;;;;4.20;2.63;;;;;;;2.08;100.00;151900.13;4977679;28;20453;-76
2022/01/06 03:53:19;;;;;;;5.13;2.80;;;;;;;2.07;100.00;151898.81;4993801;28;20765;-76
2022/01/06 03:55:56;;;;;;;4.60;3.00;;;;;;;2.09;100.00;151903.94;5009151;28;20479;-76
2022/01/06 03:58:31;;;;;;;5.77;4.13;;;;;;;2.12;100.00;151911.69;4977355;28;20474;-75
2022/01/06 04:01:07;;;;;;;3.70;2.90;;;;;;;2.11;100.00;151907.84;5023433;28;20441;-76
2022/01/06 04:03:44;;;;;;;5.93;3.13;;;;;;;2.11;100.00;151909.13;4992437;28;20934;-76
2022/01/06 04:06:19;;;;;;;4.83;3.53;;;;;;;2.12;100.00;151911.69;5025717;28;20769;-76
2022/01/06 04:08:55;;;;;;;3.93;3.07;;;;;;;2.13;100.00;151912.97;4977147;28;20438;-76
2022/01/06 04:11:32;;;;;;;8.07;3.10;;;;;;;2.14;100.00;151916.84;5025230;28;20530;-76
2022/01/06 04:14:07;;;;;;;4.90;3.13;;;;;;;2.13;100.00;151912.97;4992198;28;20473;-76
2022/01/06 04:16:43;;;;;;;3.70;2.70;;;;;;;2.13;100.00;151914.25;4992475;28;20439;-76
2022/01/06 04:19:18;;;;;;;5.40;3.70;;;;;;;2.13;100.00;151914.25;4995692;28;20930;-76
2022/01/06 04:21:54;;;;;;;7.63;3.27;;;;;;;2.13;100.00;151914.25;5028095;28;20940;-76
2022/01/06 04:24:30;;;;;;;5.30;3.17;;;;;;;2.12;100.00;151911.69;5003585;28;20463;-75
2022/01/06 04:27:07;;;;;;;4.17;2.93;;;;;;;2.12;100.00;151910.44;4992254;28;20448;-75
2022/01/06 04:29:42;;;;;;;4.40;3.07;;;;;;;2.13;100.00;151914.25;5008440;28;20451;-75
2022/01/06 04:32:18;;;;;;;3.53;2.67;;;;;;;2.15;100.00;151918.09;4976245;28;20537;-76
2022/01/06 04:34:54;;;;;;;5.80;3.10;;;;;;;2.16;100.00;151920.69;5007228;28;20468;-76
2022/01/06 04:37:29;;;;;;;5.13;3.37;;;;;;;2.17;100.00;151924.53;4993439;28;20463;-76
2022/01/06 04:40:06;;;;;;;6.20;3.90;;;;;;;2.18;100.00;151927.13;5008362;28;20451;-76
2022/01/06 04:42:43;;;;;;;6.27;3.30;;;;;;;2.19;100.00;151929.72;5008005;28;20530;-76
2022/01/06 04:45:19;;;;;;;5.27;3.70;;;;;;;2.22;100.00;151937.44;4993451;28;20470;-76
2022/01/06 04:47:54;;;;;;;6.70;3.43;;;;;;;2.21;100.00;151934.84;5008097;28;20538;-75
2022/01/06 04:50:30;;;;;;;7.70;3.17;;;;;;;2.20;100.00;151932.25;4982291;28;20451;-76
2022/01/06 04:53:05;;;;;;;5.43;3.50;;;;;;;2.21;100.00;151934.84;4988658;28;20798;-76
2022/01/06 04:55:41;;;;;;;4.73;3.67;;;;;;;2.22;100.00;151936.13;4973810;28;20440;-76
2022/01/06 04:58:18;;;;;;;4.93;3.27;;;;;;;2.19;100.00;151928.41;4979065;28;20561;-76
2022/01/06 05:00:54;;;;;;;4.40;3.80;;;;;;;2.20;100.00;151932.25;5009372;28;20472;-76
2022/01/06 05:03:29;;;;;;;5.00;3.90;;;;;;;2.20;100.00;151930.94;5006708;28;20939;-76
2022/01/06 05:06:05;;;;;;;6.93;3.63;;;;;;;2.16;100.00;151920.69;4993365;28;20826;-76
2022/01/06 05:08:40;;;;;;;5.00;4.00;;;;;;;2.18;100.00;151925.81;5024419;28;20436;-76
2022/01/06 05:11:16;;;;;;;4.63;3.30;;;;;;;2.18;100.00;151927.13;4991582;28;20435;-76
2022/01/06 05:13:53;;;;;;;5.10;4.10;;;;;;;2.18;100.00;151927.13;4991520;28;20447;-75
2022/01/06 05:16:29;;;;;;;5.07;3.50;;;;;;;2.22;100.00;151936.13;5024211;28;20453;-76
2022/01/06 05:19:04;;;;;;;4.87;3.80;;;;;;;2.20;100.00;151932.25;4991674;28;20446;-76
2022/01/06 05:21:40;;;;;;;6.53;3.63;;;;;;;2.21;100.00;151933.53;4999892;28;20777;-76
2022/01/06 05:24:17;;;;;;;5.17;3.43;;;;;;;2.21;100.00;151933.53;5027479;28;20441;-76
2022/01/06 05:26:54;;;;;;;6.97;3.50;;;;;;;2.20;100.00;151932.25;5027552;28;20831;-76
2022/01/06 05:29:32;;;;;;;5.30;3.90;;;;;;;2.21;100.00;151934.84;5027370;28;20482;-75
2022/01/06 05:32:08;;;;;;;6.20;3.40;;;;;;;2.18;100.00;151927.13;5007553;28;20446;-76
2022/01/06 05:34:43;;;;;;;4.40;3.30;;;;;;;2.19;100.00;151929.72;5007681;28;20458;-75
2022/01/06 05:37:19;;;;;;;4.77;3.80;;;;;;;2.17;100.00;151924.53;4992618;28;20457;-76
2022/01/06 05:39:54;;;;;;;4.43;2.97;;;;;;;2.16;100.00;151921.97;4992507;28;20454;-76
2022/01/06 05:42:30;;;;;;;3.50;2.83;;;;;;;2.16;100.00;151920.69;5008716;28;20529;-76
2022/01/06 05:45:09;;;;;;;4.80;3.37;;;;;;;2.13;100.00;151914.25;5011370;28;20450;-75
2022/01/06 05:47:44;;;;;;;5.33;3.20;;;;;;;2.13;100.00;151912.97;5011236;28;20506;-76
2022/01/06 05:50:20;;;;;;;4.97;3.00;;;;;;;2.14;100.00;151915.56;5001264;28;20466;-77
2022/01/06 05:52:56;;;;;;;5.53;3.63;;;;;;;2.14;100.00;151916.84;4975538;28;20447;-76
2022/01/06 05:55:32;;;;;;;5.30;3.37;;;;;;;2.12;100.00;151911.69;4991501;28;20983;-76
2022/01/06 05:58:07;;;;;;;4.90;3.43;;;;;;;2.12;100.00;151911.69;4975390;28;20527;-76
2022/01/06 06:00:44;;;;;;;3.83;3.30;;;;;;;2.13;100.00;151914.25;4991614;28;20484;-76
2022/01/06 06:03:20;;;;;;;7.87;3.37;;;;;;;2.14;100.00;151915.56;4976669;28;20420;-76
2022/01/06 06:05:55;;;;;;;5.80;3.90;;;;;;;2.15;100.00;151919.41;4979905;28;20539;-76
2022/01/06 06:08:30;;;;;;;4.43;3.43;;;;;;;2.16;100.00;151921.97;4979561;28;20439;-76
2022/01/06 06:11:06;;;;;;;4.87;3.70;;;;;;;2.18;100.00;151927.13;5009902;28;20447;-76
2022/01/06 06:13:41;;;;;;;5.70;3.43;;;;;;;2.17;100.00;151924.53;4995901;28;20419;-76
2022/01/06 06:16:18;;;;;;;3.80;3.30;;;;;;;2.17;100.00;151924.53;5027461;28;20921;-76
2022/01/06 06:18:54;;;;;;;4.90;3.10;;;;;;;2.18;100.00;151925.81;5010752;28;20556;-76
2022/01/06 06:21:29;;;;;;;3.20;2.80;;;;;;;2.15;100.00;151919.41;5001544;28;20777;-76
2022/01/06 06:24:06;;;;;;;4.60;3.20;;;;;;;2.17;100.00;151924.53;5018034;28;20452;-76
2022/01/06 06:26:41;;;;;;;5.13;3.10;;;;;;;2.16;100.00;151921.97;5010675;28;20439;-77
2022/01/06 06:29:17;;;;;;;3.73;3.20;;;;;;;2.13;100.00;151914.25;5010649;28;20456;-76
2022/01/06 06:31:54;;;;;;;5.80;3.33;;;;;;;2.14;100.00;151915.56;5010523;28;20439;-76
2022/01/06 06:34:29;;;;;;;6.27;3.93;;;;;;;2.15;100.00;151919.41;4995586;28;20471;-76
2022/01/06 06:37:04;;;;;;;4.93;3.40;;;;;;;2.13;100.00;151912.97;5010485;28;20478;-76
2022/01/06 06:39:40;;;;;;;5.57;3.67;;;;;;;2.16;100.00;151921.97;5010288;28;20438;-76
2022/01/06 06:42:15;;;;;;;4.80;3.23;;;;;;;2.15;100.00;151919.41;4987175;28;20436;-76
2022/01/06 06:44:51;;;;;;;5.87;3.20;;;;;;;2.14;100.00;151916.84;5010503;28;20458;-76
2022/01/06 06:47:28;;;;;;;3.70;3.40;;;;;;;2.13;100.00;151912.97;4978817;28;20500;-76
2022/01/06 06:50:05;;;;;;;4.83;3.90;;;;;;;2.12;100.00;151911.69;5010076;28;20544;-76
2022/01/06 06:52:41;;;;;;;5.30;3.27;;;;;;;2.13;100.00;151914.25;4993939;28;20810;-76
2022/01/06 06:55:16;;;;;;;6.97;3.90;;;;;;;2.13;100.00;151912.97;4977855;28;20454;-76
2022/01/06 06:57:52;;;;;;;5.70;3.90;;;;;;;2.11;100.00;151909.13;4978850;28;20506;-76
2022/01/06 07:00:28;;;;;;;5.00;3.67;;;;;;;2.12;100.00;151911.69;5010092;28;20543;-76
2022/01/06 07:03:05;;;;;;;4.07;3.20;;;;;;;2.11;100.00;151907.84;4993815;28;20771;-76
2022/01/06 07:05:40;;;;;;;4.63;3.80;;;;;;;2.09;100.00;151903.94;4993670;28;20451;-76
2022/01/06 07:08:16;;;;;;;4.47;3.67;;;;;;;2.06;100.00;151896.28;4978590;28;20438;-76
2022/01/06 07:10:51;;;;;;;3.80;2.87;;;;;;;2.03;100.00;151887.25;4978609;28;20937;-76
2022/01/06 07:13:27;;;;;;;4.20;3.73;;;;;;;2.02;100.00;151885.97;5009840;28;20447;-76
2022/01/06 07:16:03;;;;;;;5.40;3.37;;;;;;;2.04;100.00;151891.09;5009028;28;20443;-76
2022/01/06 07:18:40;;;;;;;4.57;3.23;;;;;;;2.04;100.00;151891.09;5009391;28;20480;-76
2022/01/06 07:21:15;;;;;;;5.30;3.60;;;;;;;2.07;100.00;151897.53;5014860;28;20445;-76
2022/01/06 07:23:52;;;;;;;5.63;3.90;;;;;;;2.06;100.00;151895.00;5012847;28;20450;-76
2022/01/06 07:26:27;;;;;;;4.60;3.50;;;;;;;2.06;100.00;151895.00;5012836;28;20426;-76
2022/01/06 07:29:03;;;;;;;5.50;3.20;;;;;;;2.07;100.00;151898.81;5013026;28;20413;-76
2022/01/06 07:31:38;;;;;;;4.83;3.70;;;;;;;2.09;100.00;151903.94;5020128;28;20478;-76
2022/01/06 07:34:15;;;;;;;5.30;3.60;;;;;;;2.12;100.00;151910.44;4994493;28;20535;-76
2022/01/06 07:36:50;;;;;;;5.20;3.60;;;;;;;2.12;100.00;151911.69;5008111;28;20451;-77
2022/01/06 07:39:26;;;;;;;4.40;3.27;;;;;;;2.11;100.00;151907.84;5010506;28;20871;-76
2022/01/06 07:42:02;;;;;;;7.90;3.70;;;;;;;2.12;100.00;151910.44;5009246;28;20442;-76
2022/01/06 07:44:37;;;;;;;4.67;3.17;;;;;;;2.13;100.00;151914.25;4977940;28;20436;-76
2022/01/06 07:47:14;;;;;;;5.90;3.43;;;;;;;2.14;100.00;151916.84;5009029;28;20434;-76
2022/01/06 07:49:51;;;;;;;8.27;3.93;;;;;;;2.14;100.00;151916.84;5008934;28;20782;-76
2022/01/06 07:52:26;;;;;;;5.50;3.20;;;;;;;2.15;100.00;151919.41;4993834;28;20914;-76
2022/01/06 07:55:02;;;;;;;4.03;3.17;;;;;;;2.13;100.00;151914.25;5009194;28;20435;-76
2022/01/06 07:57:37;;;;;;;5.20;3.50;;;;;;;2.12;100.00;151910.44;5008703;28;20850;-76
2022/01/06 08:00:14;;;;;;;5.77;4.20;;;;;;;2.12;100.00;151911.69;5009187;28;20447;-76
2022/01/06 08:02:50;;;;;;;11.27;4.27;;;;;;;2.12;100.00;151910.44;4992462;28;20442;-76
2022/01/06 08:05:27;;;;;;;8.87;4.97;;;;;;;2.10;100.00;151906.53;4993867;28;20454;-76
2022/01/06 08:08:03;;;;;;;3.73;3.00;;;;;;;2.10;100.00;151905.25;4992480;28;20524;-76
2022/01/06 08:10:38;;;;;;;6.67;3.47;;;;;;;2.10;100.00;151906.53;4992558;28;20473;-76
2022/01/06 08:13:14;;;;;;;4.70;3.50;;;;;;;2.06;100.00;151896.28;5008735;28;20431;-76
2022/01/06 08:15:50;;;;;;;7.33;3.07;;;;;;;2.07;100.00;151897.53;5007717;28;20519;-76
2022/01/06 08:18:26;;;;;;;4.57;3.10;;;;;;;2.06;100.00;151895.00;5007282;28;20459;-76
2022/01/06 08:21:03;;;;;;;5.13;4.00;;;;;;;2.07;100.00;151897.53;4980836;28;20452;-76
2022/01/06 08:23:39;;;;;;;6.50;3.33;;;;;;;2.07;100.00;151898.81;4994677;28;20774;-76
2022/01/06 08:26:14;;;;;;;3.80;3.13;;;;;;;2.03;100.00;151887.25;5008634;28;20521;-76
2022/01/06 08:28:51;;;;;;;4.80;3.30;;;;;;;2.04;100.00;151891.09;5008374;28;20878;-76
2022/01/06 08:31:26;;;;;;;7.50;4.03;;;;;;;2.03;100.00;151887.25;4992105;28;20861;-76
2022/01/06 08:34:02;;;;;;;6.90;3.63;;;;;;;2.05;100.00;151893.69;4991968;28;20801;-76
2022/01/06 08:36:39;;;;;;;4.50;3.60;;;;;;;2.06;100.00;151895.00;5007121;28;20808;-76
2022/01/06 08:39:14;;;;;;;6.00;3.27;;;;;;;2.09;100.00;151902.72;5009396;28;20485;-76
2022/01/06 08:41:51;;;;;;;5.00;3.40;;;;;;;2.10;100.00;151905.25;5024629;28;20442;-76
2022/01/06 08:44:27;;;;;;;3.80;3.13;;;;;;;2.06;100.00;151895.00;4993282;28;20441;-76
2022/01/06 08:47:03;;;;;;;3.40;2.67;;;;;;;2.11;100.00;151907.84;5007796;28;20524;-76
2022/01/06 08:49:41;;;;;;;6.70;2.83;;;;;;;2.20;100.00;151932.25;4976790;28;20436;-76
2022/01/06 08:52:17;;;;;;;4.67;3.37;;;;;;;2.29;100.00;151954.13;5005366;28;20475;-77
2022/01/06 08:54:53;;;;;;;5.70;3.67;;;;;;;2.36;100.00;151973.41;4988663;28;20447;-76
2022/01/06 08:57:28;;;;;;;6.17;3.70;;;;;;;2.42;100.00;151988.84;4987455;28;20508;-77
2022/01/06 09:00:06;;;;;;;6.97;4.20;;;;;;;2.48;100.00;152003.00;5008246;28;20486;-76
2022/01/06 09:02:42;;;;;;;6.63;3.63;;;;;;;2.49;100.00;152004.28;5007866;28;20451;-76
2022/01/06 09:05:17;;;;;;;7.27;3.83;;;;;;;2.55;100.00;152019.69;4991809;28;20918;-76
2022/01/06 09:07:54;;;;;;;4.73;3.40;;;;;;;2.61;100.00;152035.13;4992951;28;20420;-76
2022/01/06 09:10:33;;;;;;;7.13;3.80;;;;;;;2.61;100.00;152035.13;4976774;28;20454;-76
2022/01/06 09:13:08;;;;;;;5.57;3.97;;;;;;;2.63;100.00;152040.25;4992697;28;20448;-76
2022/01/06 09:15:44;;;;;;;4.50;3.57;;;;;;;2.56;100.00;152023.56;5008009;28;20447;-76
2022/01/06 09:18:19;;;;;;;5.43;4.30;;;;;;;2.53;100.00;152014.56;5026800;28;20540;-76
2022/01/06 09:20:55;;;;;;;3.50;3.10;;;;;;;2.50;100.00;152008.13;4995469;28;20490;-76
2022/01/06 09:23:32;;;;;;;7.00;3.63;;;;;;;2.47;100.00;152001.69;5005227;28;20954;-76
2022/01/06 09:26:08;;;;;;;4.17;3.60;;;;;;;2.52;100.00;152011.97;5031849;28;20449;-76
2022/01/06 09:28:43;;;;;;;6.40;3.60;;;;;;;2.51;100.00;152009.41;5014916;28;20863;-76
2022/01/06 09:31:19;;;;;;;9.70;3.60;;;;;;;2.54;100.00;152018.44;5000434;28;20450;-76
2022/01/06 09:33:55;;;;;;;7.23;3.40;;;;;;;2.62;100.00;152038.97;5011552;28;20445;-77
2022/01/06 09:36:32;;;;;;;4.90;3.30;;;;;;;2.68;100.00;152053.13;5012799;28;20938;-76
2022/01/06 09:39:11;;;;;;;5.40;3.60;;;;;;;2.71;100.00;152060.84;5012813;28;20482;-76
2022/01/06 09:41:48;;;;;;;5.20;3.60;;;;;;;2.76;100.00;152075.00;5011810;28;20798;-76
2022/01/06 09:44:23;;;;;;;6.40;3.53;;;;;;;2.79;100.00;152082.72;4980258;28;20797;-76
2022/01/06 09:47:01;;;;;;;6.33;3.20;;;;;;;2.86;100.00;152099.47;5010991;28;20461;-77
2022/01/06 09:49:38;;;;;;;5.77;3.53;;;;;;;2.82;100.00;152089.16;5011457;28;20447;-76
2022/01/06 09:52:14;;;;;;;6.13;3.80;;;;;;;2.82;100.00;152089.16;4994756;28;20774;-77
2022/01/06 09:54:52;;;;;;;4.47;3.17;;;;;;;2.87;100.00;152102.00;4980216;28;20446;-76
2022/01/06 09:57:28;;;;;;;8.47;3.33;;;;;;;2.94;100.00;152121.31;4994973;28;20797;-77
2022/01/06 10:00:05;;;;;;;6.50;3.60;;;;;;;3.02;100.00;152141.91;5011283;28;20573;-77
2022/01/06 10:02:53;;;;;;;4.57;3.10;;;;;;;3.10;100.00;152161.19;4996837;28;20446;-77
2022/01/06 10:05:38;;;;;;;5.43;3.57;;;;;;;3.12;100.00;152165.06;4979419;28;20459;-76
2022/01/06 10:08:14;;;;;;;6.00;3.60;;;;;;;3.16;100.00;152175.34;4979870;28;20431;-77
2022/01/06 10:10:51;;;;;;;5.07;3.40;;;;;;;3.19;100.00;152183.06;5011247;28;20881;-74
2022/01/06 10:13:31;;;;;;;5.50;3.43;;;;;;;3.22;100.00;152192.09;4995814;28;20436;-76
2022/01/06 10:16:17;;;;;;;6.37;3.20;;;;;;;3.33;100.00;152220.41;5010756;28;20444;-77
2022/01/06 10:18:58;;;;;;;6.57;3.60;;;;;;;3.42;100.00;152243.56;5027266;28;20501;-77
2022/01/06 10:21:37;;;;;;;7.67;4.00;;;;;;;3.48;100.00;152259.00;4994484;28;20437;-74
2022/01/06 10:24:15;;;;;;;5.63;3.27;;;;;;;3.45;100.00;152251.28;5026256;28;20443;-74
2022/01/06 10:26:54;;;;;;;4.57;3.30;;;;;;;3.50;99.76;152264.16;4998821;28;20550;-75
2022/01/06 10:29:31;;;;;;;5.17;3.27;;;;;;;3.49;99.84;152260.31;5030149;28;20856;-75
2022/01/06 10:32:08;;;;;;;5.83;3.30;;;;;;;3.49;100.00;152261.59;5015149;28;20430;-75
2022/01/06 10:34:45;;;;;;;5.70;3.20;;;;;;;3.50;100.00;152264.16;5015122;28;20439;-75
2022/01/06 10:37:24;;;;;;;4.33;3.30;;;;;;;3.52;99.10;152269.28;5030552;28;20543;-75
2022/01/06 10:40:02;;;;;;;4.90;3.73;;;;;;;3.54;100.00;152273.19;5010424;28;20670;-76
2022/01/06 10:42:41;;;;;;;6.00;3.63;;;;;;;3.53;99.73;152271.88;5010304;28;20443;-75
2022/01/06 10:45:23;;;;;;;4.43;3.10;;;;;;;3.50;100.00;152264.16;5008997;28;20452;-75
2022/01/06 10:48:00;;;;;;;6.17;3.73;;;;;;;3.51;99.63;152266.75;5010232;28;20494;-75
2022/01/06 10:50:38;;;;;;;8.67;3.30;;;;;;;3.52;100.00;152269.28;5010112;28;20447;-75
2022/01/06 10:53:14;;;;;;;4.60;3.37;;;;;;;3.50;99.51;152264.16;5010212;28;20463;-75
2022/01/06 10:55:49;;;;;;;4.60;3.40;;;;;;;3.52;97.38;152269.28;4978781;28;20461;-75
2022/01/06 10:58:27;;;;;;;5.40;3.23;;;;;;;3.54;95.64;152273.19;4978844;28;20431;-75
2022/01/06 11:01:02;;;;;;;6.33;2.73;;;;;;;3.53;93.54;152271.88;4978708;28;20435;-75
2022/01/06 11:03:38;;;;;;;7.50;2.83;;;;;;;3.53;95.40;152271.88;5010058;28;20436;-75
2022/01/06 11:06:14;;;;;;;4.87;2.80;;;;;;;3.49;93.34;152261.59;5009965;28;20985;-75
2022/01/06 11:08:51;;;;;;;3.03;2.57;;;;;;;3.45;95.55;152251.28;4994680;28;20408;-76
2022/01/06 11:11:42;;;;;;;6.40;3.20;;;;;;;3.48;94.29;152259.00;4993559;28;20436;-75
2022/01/06 11:14:21;;;;;;;5.80;2.27;;;;;;;3.57;96.14;152282.16;4993247;28;20444;-75
2022/01/06 11:16:57;;;;;;;6.43;3.43;;;;;;;3.67;94.82;152307.94;5009846;28;21085;-76
2022/01/06 11:19:32;;;;;;;4.43;2.80;;;;;;;3.75;96.63;152325.94;5009661;28;20492;-75
2022/01/06 11:22:09;;;;;;;7.63;3.60;;;;;;;3.77;93.91;152332.38;5009690;28;20427;-75
2022/01/06 11:24:52;;;;;;;4.50;2.40;;;;;;;3.79;94.33;152336.22;4973787;28;20451;-75
2022/01/06 11:27:33;;;;;;;5.23;3.30;;;;;;;3.79;93.59;152336.22;4973816;28;20438;-75
2022/01/06 11:30:12;;;;;;;3.20;2.50;;;;;;;3.80;94.10;152340.13;4987686;28;20440;-76
2022/01/06 11:32:58;;;;;;;6.63;2.97;;;;;;;3.76;93.84;152328.53;4993153;28;20456;-75
2022/01/06 11:35:48;;;;;;;6.97;2.83;;;;;;;3.79;96.64;152336.22;5009274;28;20448;-75
2022/01/06 11:38:26;;;;;;;4.93;2.80;;;;;;;3.80;93.92;152340.13;5008320;28;20449;-75
2022/01/06 11:41:08;;;;;;;6.37;2.30;;;;;;;3.72;92.45;152319.50;5008784;28;20480;-75
2022/01/06 11:43:45;;;;;;;7.73;3.13;;;;;;;3.63;93.33;152296.31;4992846;28;20433;-75
2022/01/06 11:46:23;;;;;;;3.97;2.80;;;;;;;3.62;92.57;152295.06;5025515;28;20452;-75
2022/01/06 11:48:59;;;;;;;6.53;2.80;;;;;;;3.62;93.83;152293.78;5009115;28;20476;-75
2022/01/06 11:51:37;;;;;;;6.60;3.07;;;;;;;3.57;92.32;152282.16;4993993;28;20445;-75
2022/01/06 11:54:15;;;;;;;3.50;2.57;;;;;;;3.59;95.18;152286.03;4981353;28;20456;-75
2022/01/06 11:56:53;;;;;;;3.53;2.50;;;;;;;3.58;92.97;152284.75;4973202;28;20449;-75
2022/01/06 11:59:29;;;;;;;8.80;3.30;;;;;;;3.63;93.92;152297.63;4989267;28;20480;-75
2022/01/06 12:02:06;;;;;;;3.37;2.40;;;;;;;3.56;93.46;152278.31;4989395;28;20437;-75
2022/01/06 12:04:42;;;;;;;5.70;3.50;;;;;;;3.58;93.11;152283.47;5006632;28;20455;-75
2022/01/06 12:07:17;;;;;;;4.30;3.20;;;;;;;3.60;95.77;152289.88;4993813;28;20918;-75
2022/01/06 12:09:57;;;;;;;3.53;2.47;;;;;;;3.52;92.36;152268.03;4992504;28;20947;-74
2022/01/06 12:12:33;;;;;;;4.70;3.07;;;;;;;3.51;93.97;152266.75;5008696;28;20456;-75
2022/01/06 12:15:11;;;;;;;6.07;2.73;;;;;;;3.56;94.53;152278.31;5008550;28;20451;-75